sensor_id;sensor_type;location;lat;lon;timestamp;P1;durP1;ratioP1;P2;durP2;ratioP2
15858;SDS011;8029;52.202;7.308;2023-01-29T00:02:16;13.03;;;9.53;;
15858;SDS011;8029;52.202;7.308;2023-01-29T00:04:42;11.43;;;8.93;;
15858;SDS011;8029;52.202;7.308;2023-01-29T00:07:08;8.70;;;7.77;;
15858;SDS011;8029;52.202;7.308;2023-01-29T00:09:34;8.63;;;7.67;;
15858;SDS011;8029;52.202;7.308;2023-01-29T00:12:00;12.93;;;9.73;;
15858;SDS011;8029;52.202;7.308;2023-01-29T00:14:26;9.60;;;8.50;;
15858;SDS011;8029;52.202;7.308;2023-01-29T00:16:52;11.00;;;7.67;;
15858;SDS011;8029;52.202;7.308;2023-01-29T00:19:18;10.03;;;9.03;;
15858;SDS011;8029;52.202;7.308;2023-01-29T00:21:44;12.77;;;9.63;;
15858;SDS011;8029;52.202;7.308;2023-01-29T00:24:10;13.70;;;10.53;;
15858;SDS011;8029;52.202;7.308;2023-01-29T00:26:37;8.87;;;7.73;;
15858;SDS011;8029;52.202;7.308;2023-01-29T00:29:04;16.23;;;11.20;;
15858;SDS011;8029;52.202;7.308;2023-01-29T00:31:30;11.10;;;9.43;;
15858;SDS011;8029;52.202;7.308;2023-01-29T00:33:56;9.73;;;8.57;;
15858;SDS011;8029;52.202;7.308;2023-01-29T00:36:23;13.43;;;8.67;;
15858;SDS011;8029;52.202;7.308;2023-01-29T00:38:59;13.80;;;9.00;;
15858;SDS011;8029;52.202;7.308;2023-01-29T00:41:27;10.43;;;9.33;;
15858;SDS011;8029;52.202;7.308;2023-01-29T00:44:11;10.23;;;8.70;;
15858;SDS011;8029;52.202;7.308;2023-01-29T00:46:56;11.77;;;8.93;;
15858;SDS011;8029;52.202;7.308;2023-01-29T00:49:22;9.60;;;8.57;;
15858;SDS011;8029;52.202;7.308;2023-01-29T00:51:48;12.00;;;8.40;;
15858;SDS011;8029;52.202;7.308;2023-01-29T00:54:33;8.10;;;7.27;;
15858;SDS011;8029;52.202;7.308;2023-01-29T00:57:00;8.63;;;7.73;;
15858;SDS011;8029;52.202;7.308;2023-01-29T00:59:26;8.97;;;7.77;;
15858;SDS011;8029;52.202;7.308;2023-01-29T01:01:52;8.53;;;7.60;;
15858;SDS011;8029;52.202;7.308;2023-01-29T01:04:36;13.47;;;8.47;;
15858;SDS011;8029;52.202;7.308;2023-01-29T01:07:02;9.07;;;8.00;;
15858;SDS011;8029;52.202;7.308;2023-01-29T01:09:28;9.17;;;8.27;;
15858;SDS011;8029;52.202;7.308;2023-01-29T01:12:13;8.30;;;7.50;;
15858;SDS011;8029;52.202;7.308;2023-01-29T01:14:39;10.20;;;8.90;;
15858;SDS011;8029;52.202;7.308;2023-01-29T01:17:07;13.13;;;9.00;;
15858;SDS011;8029;52.202;7.308;2023-01-29T01:19:33;10.93;;;9.80;;
15858;SDS011;8029;52.202;7.308;2023-01-29T01:21:59;7.13;;;6.47;;
15858;SDS011;8029;52.202;7.308;2023-01-29T01:24:24;11.13;;;9.40;;
15858;SDS011;8029;52.202;7.308;2023-01-29T01:26:50;12.17;;;9.70;;
15858;SDS011;8029;52.202;7.308;2023-01-29T01:29:16;12.60;;;9.73;;
15858;SDS011;8029;52.202;7.308;2023-01-29T01:31:42;10.03;;;6.63;;
15858;SDS011;8029;52.202;7.308;2023-01-29T01:34:09;14.33;;;8.37;;
15858;SDS011;8029;52.202;7.308;2023-01-29T01:36:35;11.53;;;8.43;;
15858;SDS011;8029;52.202;7.308;2023-01-29T01:39:01;12.03;;;8.23;;
15858;SDS011;8029;52.202;7.308;2023-01-29T01:41:28;9.47;;;8.47;;
15858;SDS011;8029;52.202;7.308;2023-01-29T01:43:55;12.30;;;9.30;;
15858;SDS011;8029;52.202;7.308;2023-01-29T01:46:22;7.77;;;7.00;;
15858;SDS011;8029;52.202;7.308;2023-01-29T01:48:50;9.67;;;7.97;;
15858;SDS011;8029;52.202;7.308;2023-01-29T01:51:19;10.43;;;8.93;;
15858;SDS011;8029;52.202;7.308;2023-01-29T01:53:51;10.27;;;9.17;;
15858;SDS011;8029;52.202;7.308;2023-01-29T01:56:23;10.77;;;8.60;;
15858;SDS011;8029;52.202;7.308;2023-01-29T01:58:52;10.10;;;9.03;;
15858;SDS011;8029;52.202;7.308;2023-01-29T02:01:19;10.27;;;8.63;;
15858;SDS011;8029;52.202;7.308;2023-01-29T02:04:12;11.13;;;9.97;;
15858;SDS011;8029;52.202;7.308;2023-01-29T02:06:57;9.73;;;8.67;;
15858;SDS011;8029;52.202;7.308;2023-01-29T02:09:59;9.83;;;8.67;;
15858;SDS011;8029;52.202;7.308;2023-01-29T02:12:26;11.97;;;9.30;;
15858;SDS011;8029;52.202;7.308;2023-01-29T02:14:55;14.57;;;9.50;;
15858;SDS011;8029;52.202;7.308;2023-01-29T02:17:21;8.87;;;7.97;;
15858;SDS011;8029;52.202;7.308;2023-01-29T02:20:02;10.23;;;8.13;;
15858;SDS011;8029;52.202;7.308;2023-01-29T02:22:40;11.73;;;9.53;;
15858;SDS011;8029;52.202;7.308;2023-01-29T02:30:42;9.80;;;8.80;;
15858;SDS011;8029;52.202;7.308;2023-01-29T02:36:02;8.90;;;8.00;;
15858;SDS011;8029;52.202;7.308;2023-01-29T02:38:46;11.27;;;8.77;;
15858;SDS011;8029;52.202;7.308;2023-01-29T02:41:15;7.70;;;7.00;;
15858;SDS011;8029;52.202;7.308;2023-01-29T02:43:47;9.80;;;8.00;;
15858;SDS011;8029;52.202;7.308;2023-01-29T02:51:35;9.10;;;8.17;;
15858;SDS011;8029;52.202;7.308;2023-01-29T02:54:08;9.87;;;8.80;;
15858;SDS011;8029;52.202;7.308;2023-01-29T02:56:38;10.03;;;8.77;;
15858;SDS011;8029;52.202;7.308;2023-01-29T02:59:14;10.30;;;7.83;;
15858;SDS011;8029;52.202;7.308;2023-01-29T03:01:47;11.07;;;9.23;;
15858;SDS011;8029;52.202;7.308;2023-01-29T03:04:15;10.27;;;8.20;;
15858;SDS011;8029;52.202;7.308;2023-01-29T03:06:46;9.07;;;8.10;;
15858;SDS011;8029;52.202;7.308;2023-01-29T03:09:17;16.03;;;10.30;;
15858;SDS011;8029;52.202;7.308;2023-01-29T03:11:47;10.50;;;8.23;;
15858;SDS011;8029;52.202;7.308;2023-01-29T03:14:15;9.63;;;8.60;;
15858;SDS011;8029;52.202;7.308;2023-01-29T03:16:44;11.10;;;9.47;;
15858;SDS011;8029;52.202;7.308;2023-01-29T03:19:13;10.20;;;8.47;;
15858;SDS011;8029;52.202;7.308;2023-01-29T03:21:43;9.37;;;8.37;;
15858;SDS011;8029;52.202;7.308;2023-01-29T03:24:38;16.73;;;9.07;;
15858;SDS011;8029;52.202;7.308;2023-01-29T03:27:25;8.93;;;7.80;;
15858;SDS011;8029;52.202;7.308;2023-01-29T03:30:11;10.13;;;9.00;;
15858;SDS011;8029;52.202;7.308;2023-01-29T03:32:58;11.77;;;9.03;;
15858;SDS011;8029;52.202;7.308;2023-01-29T03:35:25;12.13;;;9.43;;
15858;SDS011;8029;52.202;7.308;2023-01-29T03:38:01;12.47;;;9.27;;
15858;SDS011;8029;52.202;7.308;2023-01-29T03:40:28;12.40;;;10.27;;
15858;SDS011;8029;52.202;7.308;2023-01-29T03:43:04;10.87;;;8.50;;
15858;SDS011;8029;52.202;7.308;2023-01-29T03:48:06;10.60;;;9.50;;
15858;SDS011;8029;52.202;7.308;2023-01-29T03:50:36;12.97;;;9.80;;
15858;SDS011;8029;52.202;7.308;2023-01-29T04:01:00;10.80;;;8.67;;
15858;SDS011;8029;52.202;7.308;2023-01-29T04:03:35;12.33;;;10.30;;
15858;SDS011;8029;52.202;7.308;2023-01-29T04:08:33;14.03;;;10.67;;
15858;SDS011;8029;52.202;7.308;2023-01-29T04:11:01;12.33;;;10.27;;
15858;SDS011;8029;52.202;7.308;2023-01-29T04:13:27;12.97;;;10.33;;
15858;SDS011;8029;52.202;7.308;2023-01-29T04:15:56;10.47;;;9.37;;
15858;SDS011;8029;52.202;7.308;2023-01-29T04:18:23;10.00;;;9.00;;
15858;SDS011;8029;52.202;7.308;2023-01-29T04:20:49;19.27;;;9.77;;
15858;SDS011;8029;52.202;7.308;2023-01-29T04:23:25;9.43;;;8.53;;
15858;SDS011;8029;52.202;7.308;2023-01-29T04:28:45;14.60;;;10.70;;
15858;SDS011;8029;52.202;7.308;2023-01-29T04:31:14;12.47;;;9.47;;
15858;SDS011;8029;52.202;7.308;2023-01-29T04:36:12;12.00;;;10.40;;
15858;SDS011;8029;52.202;7.308;2023-01-29T04:38:49;13.07;;;9.70;;
15858;SDS011;8029;52.202;7.308;2023-01-29T04:43:51;16.50;;;10.70;;
15858;SDS011;8029;52.202;7.308;2023-01-29T04:46:28;11.07;;;9.37;;
15858;SDS011;8029;52.202;7.308;2023-01-29T04:49:14;8.60;;;7.70;;
15858;SDS011;8029;52.202;7.308;2023-01-29T04:51:59;10.63;;;9.53;;
15858;SDS011;8029;52.202;7.308;2023-01-29T04:57:13;11.73;;;9.77;;
15858;SDS011;8029;52.202;7.308;2023-01-29T04:59:42;13.03;;;10.10;;
15858;SDS011;8029;52.202;7.308;2023-01-29T05:02:11;11.37;;;9.80;;
15858;SDS011;8029;52.202;7.308;2023-01-29T05:04:38;15.37;;;11.50;;
15858;SDS011;8029;52.202;7.308;2023-01-29T05:07:07;12.23;;;8.63;;
15858;SDS011;8029;52.202;7.308;2023-01-29T05:09:34;12.90;;;9.70;;
15858;SDS011;8029;52.202;7.308;2023-01-29T05:12:01;10.90;;;9.27;;
15858;SDS011;8029;52.202;7.308;2023-01-29T05:14:29;12.53;;;9.73;;
15858;SDS011;8029;52.202;7.308;2023-01-29T05:16:55;12.40;;;10.27;;
15858;SDS011;8029;52.202;7.308;2023-01-29T05:19:23;11.70;;;9.23;;
15858;SDS011;8029;52.202;7.308;2023-01-29T05:21:49;10.73;;;9.50;;
15858;SDS011;8029;52.202;7.308;2023-01-29T05:24:16;14.33;;;9.50;;
15858;SDS011;8029;52.202;7.308;2023-01-29T05:26:43;12.17;;;10.37;;
15858;SDS011;8029;52.202;7.308;2023-01-29T05:29:28;14.63;;;10.63;;
15858;SDS011;8029;52.202;7.308;2023-01-29T05:31:54;11.93;;;10.50;;
15858;SDS011;8029;52.202;7.308;2023-01-29T05:34:20;10.13;;;8.90;;
15858;SDS011;8029;52.202;7.308;2023-01-29T05:36:46;12.37;;;10.07;;
15858;SDS011;8029;52.202;7.308;2023-01-29T05:39:12;10.33;;;8.67;;
15858;SDS011;8029;52.202;7.308;2023-01-29T05:41:38;16.80;;;10.33;;
15858;SDS011;8029;52.202;7.308;2023-01-29T05:44:04;11.37;;;9.13;;
15858;SDS011;8029;52.202;7.308;2023-01-29T05:46:30;14.20;;;10.57;;
15858;SDS011;8029;52.202;7.308;2023-01-29T05:48:56;11.90;;;9.13;;
15858;SDS011;8029;52.202;7.308;2023-01-29T05:51:22;16.03;;;9.30;;
15858;SDS011;8029;52.202;7.308;2023-01-29T05:53:48;17.17;;;11.10;;
15858;SDS011;8029;52.202;7.308;2023-01-29T05:56:14;11.63;;;9.93;;
15858;SDS011;8029;52.202;7.308;2023-01-29T05:58:39;13.07;;;10.97;;
15858;SDS011;8029;52.202;7.308;2023-01-29T06:01:07;15.53;;;10.67;;
15858;SDS011;8029;52.202;7.308;2023-01-29T06:03:33;13.27;;;9.43;;
15858;SDS011;8029;52.202;7.308;2023-01-29T06:06:00;10.60;;;9.43;;
15858;SDS011;8029;52.202;7.308;2023-01-29T06:08:26;11.03;;;9.10;;
15858;SDS011;8029;52.202;7.308;2023-01-29T06:10:52;10.47;;;8.87;;
15858;SDS011;8029;52.202;7.308;2023-01-29T06:13:18;13.47;;;10.43;;
15858;SDS011;8029;52.202;7.308;2023-01-29T06:15:44;12.00;;;9.27;;
15858;SDS011;8029;52.202;7.308;2023-01-29T06:18:10;11.83;;;9.83;;
15858;SDS011;8029;52.202;7.308;2023-01-29T06:20:36;16.33;;;10.67;;
15858;SDS011;8029;52.202;7.308;2023-01-29T06:23:02;12.37;;;10.27;;
15858;SDS011;8029;52.202;7.308;2023-01-29T06:25:28;13.97;;;10.60;;
15858;SDS011;8029;52.202;7.308;2023-01-29T06:27:54;13.43;;;11.20;;
15858;SDS011;8029;52.202;7.308;2023-01-29T06:30:20;11.83;;;10.33;;
15858;SDS011;8029;52.202;7.308;2023-01-29T06:32:46;12.53;;;10.77;;
15858;SDS011;8029;52.202;7.308;2023-01-29T06:35:12;13.43;;;8.93;;
15858;SDS011;8029;52.202;7.308;2023-01-29T06:37:38;11.27;;;9.63;;
15858;SDS011;8029;52.202;7.308;2023-01-29T06:40:04;15.83;;;11.03;;
15858;SDS011;8029;52.202;7.308;2023-01-29T06:42:30;15.73;;;10.10;;
15858;SDS011;8029;52.202;7.308;2023-01-29T06:44:56;13.13;;;10.57;;
15858;SDS011;8029;52.202;7.308;2023-01-29T06:47:22;13.23;;;9.43;;
15858;SDS011;8029;52.202;7.308;2023-01-29T06:49:48;11.50;;;10.03;;
15858;SDS011;8029;52.202;7.308;2023-01-29T06:52:14;14.23;;;9.97;;
15858;SDS011;8029;52.202;7.308;2023-01-29T06:54:40;11.57;;;9.43;;
15858;SDS011;8029;52.202;7.308;2023-01-29T06:57:06;15.30;;;10.37;;
15858;SDS011;8029;52.202;7.308;2023-01-29T06:59:32;11.27;;;9.83;;
15858;SDS011;8029;52.202;7.308;2023-01-29T07:01:58;13.30;;;9.93;;
15858;SDS011;8029;52.202;7.308;2023-01-29T07:04:24;11.27;;;9.57;;
15858;SDS011;8029;52.202;7.308;2023-01-29T07:06:51;15.00;;;11.23;;
15858;SDS011;8029;52.202;7.308;2023-01-29T07:09:17;9.23;;;7.87;;
15858;SDS011;8029;52.202;7.308;2023-01-29T07:11:43;12.80;;;9.67;;
15858;SDS011;8029;52.202;7.308;2023-01-29T07:14:09;9.00;;;8.07;;
15858;SDS011;8029;52.202;7.308;2023-01-29T07:16:35;11.07;;;9.87;;
15858;SDS011;8029;52.202;7.308;2023-01-29T07:19:01;11.00;;;9.77;;
15858;SDS011;8029;52.202;7.308;2023-01-29T07:21:27;11.97;;;8.93;;
15858;SDS011;8029;52.202;7.308;2023-01-29T07:23:53;9.67;;;8.63;;
15858;SDS011;8029;52.202;7.308;2023-01-29T07:26:19;11.13;;;9.73;;
15858;SDS011;8029;52.202;7.308;2023-01-29T07:28:45;11.47;;;10.00;;
15858;SDS011;8029;52.202;7.308;2023-01-29T07:31:12;11.70;;;9.47;;
15858;SDS011;8029;52.202;7.308;2023-01-29T07:33:39;14.27;;;10.63;;
15858;SDS011;8029;52.202;7.308;2023-01-29T07:36:06;9.93;;;8.93;;
15858;SDS011;8029;52.202;7.308;2023-01-29T07:38:32;19.47;;;10.73;;
15858;SDS011;8029;52.202;7.308;2023-01-29T07:40:58;11.77;;;10.23;;
15858;SDS011;8029;52.202;7.308;2023-01-29T07:43:24;31.67;;;10.53;;
15858;SDS011;8029;52.202;7.308;2023-01-29T07:45:50;11.43;;;9.63;;
15858;SDS011;8029;52.202;7.308;2023-01-29T07:48:16;13.00;;;10.70;;
15858;SDS011;8029;52.202;7.308;2023-01-29T07:50:42;13.37;;;10.20;;
15858;SDS011;8029;52.202;7.308;2023-01-29T07:53:12;14.63;;;10.27;;
15858;SDS011;8029;52.202;7.308;2023-01-29T07:55:43;10.73;;;8.73;;
15858;SDS011;8029;52.202;7.308;2023-01-29T07:58:09;16.90;;;11.97;;
15858;SDS011;8029;52.202;7.308;2023-01-29T08:00:36;14.40;;;10.07;;
15858;SDS011;8029;52.202;7.308;2023-01-29T08:03:03;19.30;;;10.97;;
15858;SDS011;8029;52.202;7.308;2023-01-29T08:05:29;11.90;;;9.80;;
15858;SDS011;8029;52.202;7.308;2023-01-29T08:07:55;10.03;;;9.00;;
15858;SDS011;8029;52.202;7.308;2023-01-29T08:10:21;11.07;;;9.60;;
15858;SDS011;8029;52.202;7.308;2023-01-29T08:12:52;15.10;;;10.83;;
15858;SDS011;8029;52.202;7.308;2023-01-29T08:15:18;15.33;;;9.83;;
15858;SDS011;8029;52.202;7.308;2023-01-29T08:17:44;22.00;;;11.97;;
15858;SDS011;8029;52.202;7.308;2023-01-29T08:20:10;14.17;;;9.27;;
15858;SDS011;8029;52.202;7.308;2023-01-29T08:22:37;12.37;;;10.20;;
15858;SDS011;8029;52.202;7.308;2023-01-29T08:25:03;19.43;;;10.53;;
15858;SDS011;8029;52.202;7.308;2023-01-29T08:27:29;12.03;;;8.80;;
15858;SDS011;8029;52.202;7.308;2023-01-29T08:29:55;13.63;;;10.07;;
15858;SDS011;8029;52.202;7.308;2023-01-29T08:32:21;13.03;;;8.60;;
15858;SDS011;8029;52.202;7.308;2023-01-29T08:34:47;16.57;;;11.20;;
15858;SDS011;8029;52.202;7.308;2023-01-29T08:37:13;14.47;;;10.03;;
15858;SDS011;8029;52.202;7.308;2023-01-29T08:39:39;10.67;;;8.37;;
15858;SDS011;8029;52.202;7.308;2023-01-29T08:42:05;11.30;;;8.27;;
15858;SDS011;8029;52.202;7.308;2023-01-29T08:44:31;10.73;;;8.90;;
15858;SDS011;8029;52.202;7.308;2023-01-29T08:46:57;11.80;;;8.80;;
15858;SDS011;8029;52.202;7.308;2023-01-29T08:49:23;9.17;;;8.10;;
15858;SDS011;8029;52.202;7.308;2023-01-29T08:51:49;11.77;;;9.00;;
15858;SDS011;8029;52.202;7.308;2023-01-29T08:54:16;11.73;;;8.77;;
15858;SDS011;8029;52.202;7.308;2023-01-29T08:56:42;12.80;;;9.37;;
15858;SDS011;8029;52.202;7.308;2023-01-29T08:59:09;10.37;;;8.63;;
15858;SDS011;8029;52.202;7.308;2023-01-29T09:01:35;9.60;;;8.60;;
15858;SDS011;8029;52.202;7.308;2023-01-29T09:04:01;10.57;;;7.87;;
15858;SDS011;8029;52.202;7.308;2023-01-29T09:06:28;11.30;;;8.87;;
15858;SDS011;8029;52.202;7.308;2023-01-29T09:08:54;11.77;;;9.30;;
15858;SDS011;8029;52.202;7.308;2023-01-29T09:11:20;10.67;;;9.10;;
15858;SDS011;8029;52.202;7.308;2023-01-29T09:13:46;12.10;;;9.97;;
15858;SDS011;8029;52.202;7.308;2023-01-29T09:16:12;13.00;;;8.90;;
15858;SDS011;8029;52.202;7.308;2023-01-29T09:18:38;16.57;;;10.23;;
15858;SDS011;8029;52.202;7.308;2023-01-29T09:21:05;12.53;;;9.23;;
15858;SDS011;8029;52.202;7.308;2023-01-29T09:23:31;12.60;;;9.37;;
15858;SDS011;8029;52.202;7.308;2023-01-29T09:25:57;10.93;;;8.67;;
15858;SDS011;8029;52.202;7.308;2023-01-29T09:28:23;11.50;;;8.97;;
15858;SDS011;8029;52.202;7.308;2023-01-29T09:30:49;14.70;;;10.10;;
15858;SDS011;8029;52.202;7.308;2023-01-29T09:33:16;11.97;;;10.47;;
15858;SDS011;8029;52.202;7.308;2023-01-29T09:35:42;11.00;;;9.37;;
15858;SDS011;8029;52.202;7.308;2023-01-29T09:38:12;10.73;;;8.47;;
15858;SDS011;8029;52.202;7.308;2023-01-29T09:46:14;13.63;;;10.27;;
15858;SDS011;8029;52.202;7.308;2023-01-29T09:48:42;12.87;;;10.03;;
15858;SDS011;8029;52.202;7.308;2023-01-29T09:51:13;11.20;;;9.57;;
15858;SDS011;8029;52.202;7.308;2023-01-29T09:53:49;11.10;;;9.17;;
15858;SDS011;8029;52.202;7.308;2023-01-29T09:56:21;13.10;;;9.37;;
15858;SDS011;8029;52.202;7.308;2023-01-29T09:58:52;10.73;;;8.73;;
15858;SDS011;8029;52.202;7.308;2023-01-29T10:04:06;10.70;;;9.53;;
15858;SDS011;8029;52.202;7.308;2023-01-29T10:16:54;13.63;;;10.10;;
15858;SDS011;8029;52.202;7.308;2023-01-29T10:22:02;11.40;;;9.03;;
15858;SDS011;8029;52.202;7.308;2023-01-29T10:24:34;12.67;;;9.67;;
15858;SDS011;8029;52.202;7.308;2023-01-29T10:27:09;14.13;;;10.23;;
15858;SDS011;8029;52.202;7.308;2023-01-29T10:29:39;11.03;;;8.53;;
15858;SDS011;8029;52.202;7.308;2023-01-29T10:32:07;16.57;;;10.47;;
15858;SDS011;8029;52.202;7.308;2023-01-29T10:34:51;9.20;;;7.93;;
15858;SDS011;8029;52.202;7.308;2023-01-29T10:37:22;9.97;;;8.90;;
15858;SDS011;8029;52.202;7.308;2023-01-29T10:39:49;9.77;;;8.77;;
15858;SDS011;8029;52.202;7.308;2023-01-29T10:42:24;11.60;;;9.73;;
15858;SDS011;8029;52.202;7.308;2023-01-29T10:50:31;8.63;;;7.40;;
15858;SDS011;8029;52.202;7.308;2023-01-29T10:53:09;11.67;;;9.93;;
15858;SDS011;8029;52.202;7.308;2023-01-29T11:01:01;12.03;;;9.07;;
15858;SDS011;8029;52.202;7.308;2023-01-29T11:03:28;12.93;;;10.33;;
15858;SDS011;8029;52.202;7.308;2023-01-29T11:05:56;10.20;;;8.40;;
15858;SDS011;8029;52.202;7.308;2023-01-29T11:08:33;11.03;;;9.33;;
15858;SDS011;8029;52.202;7.308;2023-01-29T11:11:15;13.03;;;8.17;;
15858;SDS011;8029;52.202;7.308;2023-01-29T11:13:44;10.10;;;8.40;;
15858;SDS011;8029;52.202;7.308;2023-01-29T11:16:13;12.07;;;8.97;;
15858;SDS011;8029;52.202;7.308;2023-01-29T11:21:15;13.63;;;9.87;;
15858;SDS011;8029;52.202;7.308;2023-01-29T11:23:41;17.27;;;10.97;;
15858;SDS011;8029;52.202;7.308;2023-01-29T11:26:10;11.10;;;9.73;;
15858;SDS011;8029;52.202;7.308;2023-01-29T11:28:40;9.80;;;8.70;;
15858;SDS011;8029;52.202;7.308;2023-01-29T11:33:42;9.40;;;7.87;;
15858;SDS011;8029;52.202;7.308;2023-01-29T11:39:20;11.43;;;9.23;;
15858;SDS011;8029;52.202;7.308;2023-01-29T11:44:32;10.67;;;9.57;;
15858;SDS011;8029;52.202;7.308;2023-01-29T11:47:09;15.40;;;9.97;;
15858;SDS011;8029;52.202;7.308;2023-01-29T11:49:35;12.33;;;10.17;;
15858;SDS011;8029;52.202;7.308;2023-01-29T11:52:04;11.53;;;9.50;;
15858;SDS011;8029;52.202;7.308;2023-01-29T11:54:32;11.37;;;9.10;;
15858;SDS011;8029;52.202;7.308;2023-01-29T11:56:59;13.77;;;10.07;;
15858;SDS011;8029;52.202;7.308;2023-01-29T11:59:28;8.97;;;7.50;;
15858;SDS011;8029;52.202;7.308;2023-01-29T12:01:55;12.35;;;9.75;;
15858;SDS011;8029;52.202;7.308;2023-01-29T12:04:22;10.30;;;8.40;;
15858;SDS011;8029;52.202;7.308;2023-01-29T12:06:49;14.73;;;9.03;;
15858;SDS011;8029;52.202;7.308;2023-01-29T12:09:18;10.60;;;8.50;;
15858;SDS011;8029;52.202;7.308;2023-01-29T12:11:46;13.40;;;8.80;;
15858;SDS011;8029;52.202;7.308;2023-01-29T12:14:28;14.50;;;7.53;;
15858;SDS011;8029;52.202;7.308;2023-01-29T12:17:09;12.23;;;8.77;;
15858;SDS011;8029;52.202;7.308;2023-01-29T12:22:05;14.87;;;10.43;;
15858;SDS011;8029;52.202;7.308;2023-01-29T12:24:34;11.47;;;8.37;;
15858;SDS011;8029;52.202;7.308;2023-01-29T12:27:06;10.80;;;9.03;;
15858;SDS011;8029;52.202;7.308;2023-01-29T12:34:36;11.40;;;9.83;;
15858;SDS011;8029;52.202;7.308;2023-01-29T12:37:15;30.13;;;10.17;;
15858;SDS011;8029;52.202;7.308;2023-01-29T12:39:42;19.23;;;11.23;;
15858;SDS011;8029;52.202;7.308;2023-01-29T12:42:18;15.10;;;9.83;;
15858;SDS011;8029;52.202;7.308;2023-01-29T12:44:47;12.03;;;9.33;;
15858;SDS011;8029;52.202;7.308;2023-01-29T12:47:21;12.43;;;9.70;;
15858;SDS011;8029;52.202;7.308;2023-01-29T12:49:50;13.97;;;10.13;;
15858;SDS011;8029;52.202;7.308;2023-01-29T12:52:18;12.13;;;9.03;;
15858;SDS011;8029;52.202;7.308;2023-01-29T12:57:20;11.07;;;9.13;;
15858;SDS011;8029;52.202;7.308;2023-01-29T12:59:52;13.77;;;9.93;;
15858;SDS011;8029;52.202;7.308;2023-01-29T13:02:33;11.17;;;8.87;;
15858;SDS011;8029;52.202;7.308;2023-01-29T13:05:06;14.77;;;11.17;;
15858;SDS011;8029;52.202;7.308;2023-01-29T13:07:41;12.03;;;9.67;;
15858;SDS011;8029;52.202;7.308;2023-01-29T13:10:11;11.40;;;10.20;;
15858;SDS011;8029;52.202;7.308;2023-01-29T13:12:39;15.90;;;11.63;;
15858;SDS011;8029;52.202;7.308;2023-01-29T13:15:20;12.57;;;11.03;;
15858;SDS011;8029;52.202;7.308;2023-01-29T13:17:55;13.63;;;10.47;;
15858;SDS011;8029;52.202;7.308;2023-01-29T13:20:28;14.50;;;9.20;;
15858;SDS011;8029;52.202;7.308;2023-01-29T13:22:55;15.10;;;10.67;;
15858;SDS011;8029;52.202;7.308;2023-01-29T13:25:23;12.93;;;10.37;;
15858;SDS011;8029;52.202;7.308;2023-01-29T13:27:49;12.20;;;9.87;;
15858;SDS011;8029;52.202;7.308;2023-01-29T13:30:36;17.07;;;11.47;;
15858;SDS011;8029;52.202;7.308;2023-01-29T13:33:02;18.13;;;9.83;;
15858;SDS011;8029;52.202;7.308;2023-01-29T13:35:33;12.37;;;9.70;;
15858;SDS011;8029;52.202;7.308;2023-01-29T13:37:59;15.37;;;12.03;;
15858;SDS011;8029;52.202;7.308;2023-01-29T13:40:26;13.20;;;10.50;;
15858;SDS011;8029;52.202;7.308;2023-01-29T13:42:53;15.87;;;12.17;;
15858;SDS011;8029;52.202;7.308;2023-01-29T13:45:33;14.20;;;10.87;;
15858;SDS011;8029;52.202;7.308;2023-01-29T13:48:07;11.80;;;9.80;;
15858;SDS011;8029;52.202;7.308;2023-01-29T13:50:40;12.80;;;10.40;;
15858;SDS011;8029;52.202;7.308;2023-01-29T13:53:08;14.00;;;10.60;;
15858;SDS011;8029;52.202;7.308;2023-01-29T13:55:43;18.53;;;10.80;;
15858;SDS011;8029;52.202;7.308;2023-01-29T14:08:05;15.37;;;11.87;;
15858;SDS011;8029;52.202;7.308;2023-01-29T14:10:32;15.30;;;11.83;;
15858;SDS011;8029;52.202;7.308;2023-01-29T14:16:25;15.50;;;12.43;;
15858;SDS011;8029;52.202;7.308;2023-01-29T14:18:29;12.80;;;10.83;;
15858;SDS011;8029;52.202;7.308;2023-01-29T14:21:05;11.60;;;9.30;;
15858;SDS011;8029;52.202;7.308;2023-01-29T14:23:33;16.03;;;11.37;;
15858;SDS011;8029;52.202;7.308;2023-01-29T14:26:01;19.50;;;11.40;;
15858;SDS011;8029;52.202;7.308;2023-01-29T14:28:28;16.43;;;10.23;;
15858;SDS011;8029;52.202;7.308;2023-01-29T14:30:55;13.63;;;11.00;;
15858;SDS011;8029;52.202;7.308;2023-01-29T14:38:17;16.27;;;12.20;;
15858;SDS011;8029;52.202;7.308;2023-01-29T14:40:44;17.20;;;12.27;;
15858;SDS011;8029;52.202;7.308;2023-01-29T14:43:18;13.33;;;11.57;;
15858;SDS011;8029;52.202;7.308;2023-01-29T14:45:45;13.10;;;10.63;;
15858;SDS011;8029;52.202;7.308;2023-01-29T14:50:57;15.93;;;12.30;;
15858;SDS011;8029;52.202;7.308;2023-01-29T14:56:10;11.00;;;9.83;;
15858;SDS011;8029;52.202;7.308;2023-01-29T14:58:40;12.93;;;11.33;;
15858;SDS011;8029;52.202;7.308;2023-01-29T15:01:13;13.60;;;10.90;;
15858;SDS011;8029;52.202;7.308;2023-01-29T15:04:00;21.20;;;13.90;;
15858;SDS011;8029;52.202;7.308;2023-01-29T15:06:29;18.20;;;12.47;;
15858;SDS011;8029;52.202;7.308;2023-01-29T15:09:05;16.03;;;12.90;;
15858;SDS011;8029;52.202;7.308;2023-01-29T15:11:37;15.23;;;12.63;;
15858;SDS011;8029;52.202;7.308;2023-01-29T15:19:24;12.53;;;10.50;;
15858;SDS011;8029;52.202;7.308;2023-01-29T15:22:00;14.23;;;12.40;;
15858;SDS011;8029;52.202;7.308;2023-01-29T15:24:26;15.33;;;13.17;;
15858;SDS011;8029;52.202;7.308;2023-01-29T15:26:52;18.33;;;14.03;;
15858;SDS011;8029;52.202;7.308;2023-01-29T15:29:21;15.67;;;13.13;;
15858;SDS011;8029;52.202;7.308;2023-01-29T15:31:48;14.87;;;13.10;;
15858;SDS011;8029;52.202;7.308;2023-01-29T15:34:14;15.57;;;12.50;;
15858;SDS011;8029;52.202;7.308;2023-01-29T15:36:40;17.17;;;11.33;;
15858;SDS011;8029;52.202;7.308;2023-01-29T15:41:35;14.63;;;11.23;;
15858;SDS011;8029;52.202;7.308;2023-01-29T15:44:01;14.03;;;11.93;;
15858;SDS011;8029;52.202;7.308;2023-01-29T15:46:28;16.73;;;12.00;;
15858;SDS011;8029;52.202;7.308;2023-01-29T15:48:55;16.03;;;13.23;;
15858;SDS011;8029;52.202;7.308;2023-01-29T15:51:23;18.07;;;11.80;;
15858;SDS011;8029;52.202;7.308;2023-01-29T15:53:54;15.20;;;12.67;;
15858;SDS011;8029;52.202;7.308;2023-01-29T15:56:21;17.97;;;12.90;;
15858;SDS011;8029;52.202;7.308;2023-01-29T15:58:48;14.97;;;12.23;;
15858;SDS011;8029;52.202;7.308;2023-01-29T16:01:15;15.27;;;12.33;;
15858;SDS011;8029;52.202;7.308;2023-01-29T16:03:42;18.37;;;13.50;;
15858;SDS011;8029;52.202;7.308;2023-01-29T16:06:08;15.33;;;11.63;;
15858;SDS011;8029;52.202;7.308;2023-01-29T16:08:34;19.10;;;14.83;;
15858;SDS011;8029;52.202;7.308;2023-01-29T16:11:01;12.83;;;11.43;;
15858;SDS011;8029;52.202;7.308;2023-01-29T16:13:29;20.27;;;13.13;;
15858;SDS011;8029;52.202;7.308;2023-01-29T16:16:02;17.97;;;13.03;;
15858;SDS011;8029;52.202;7.308;2023-01-29T16:18:29;16.20;;;14.10;;
15858;SDS011;8029;52.202;7.308;2023-01-29T16:20:57;16.97;;;13.03;;
15858;SDS011;8029;52.202;7.308;2023-01-29T16:23:31;18.07;;;14.20;;
15858;SDS011;8029;52.202;7.308;2023-01-29T16:26:07;16.63;;;14.90;;
15858;SDS011;8029;52.202;7.308;2023-01-29T16:28:43;17.80;;;13.77;;
15858;SDS011;8029;52.202;7.308;2023-01-29T16:31:09;22.00;;;15.83;;
15858;SDS011;8029;52.202;7.308;2023-01-29T16:33:39;11.93;;;10.70;;
15858;SDS011;8029;52.202;7.308;2023-01-29T16:36:14;13.33;;;11.93;;
15858;SDS011;8029;52.202;7.308;2023-01-29T16:38:41;14.70;;;13.07;;
15858;SDS011;8029;52.202;7.308;2023-01-29T16:43:44;15.27;;;11.40;;
15858;SDS011;8029;52.202;7.308;2023-01-29T16:46:24;17.17;;;13.87;;
15858;SDS011;8029;52.202;7.308;2023-01-29T16:48:50;17.10;;;14.50;;
15858;SDS011;8029;52.202;7.308;2023-01-29T16:51:24;23.23;;;16.07;;
15858;SDS011;8029;52.202;7.308;2023-01-29T16:54:00;19.97;;;14.87;;
15858;SDS011;8029;52.202;7.308;2023-01-29T16:56:29;17.73;;;14.87;;
15858;SDS011;8029;52.202;7.308;2023-01-29T16:58:56;16.83;;;13.53;;
15858;SDS011;8029;52.202;7.308;2023-01-29T17:01:23;20.60;;;15.53;;